sensor_id;sensor_type;location;lat;lon;timestamp;P1;durP1;ratioP1;P2;durP2;ratioP2
24206;SDS011;12351;52.284;9.160;2022-09-24T00:01:22;4.83;;;4.03;;
24206;SDS011;12351;52.284;9.160;2022-09-24T00:04:12;7.78;;;4.80;;
24206;SDS011;12351;52.284;9.160;2022-09-24T00:07:02;6.80;;;4.75;;
24206;SDS011;12351;52.284;9.160;2022-09-24T00:09:53;5.35;;;4.30;;
24206;SDS011;12351;52.284;9.160;2022-09-24T00:12:44;4.80;;;4.30;;
24206;SDS011;12351;52.284;9.160;2022-09-24T00:15:35;5.17;;;4.10;;
24206;SDS011;12351;52.284;9.160;2022-09-24T00:18:27;6.28;;;4.20;;
24206;SDS011;12351;52.284;9.160;2022-09-24T00:21:18;5.78;;;4.12;;
24206;SDS011;12351;52.284;9.160;2022-09-24T00:24:08;6.22;;;3.60;;
24206;SDS011;12351;52.284;9.160;2022-09-24T00:27:06;3.70;;;3.40;;
24206;SDS011;12351;52.284;9.160;2022-09-24T00:29:58;4.83;;;3.43;;
24206;SDS011;12351;52.284;9.160;2022-09-24T00:32:48;3.37;;;3.05;;
24206;SDS011;12351;52.284;9.160;2022-09-24T00:35:38;3.80;;;2.83;;
24206;SDS011;12351;52.284;9.160;2022-09-24T00:38:31;4.45;;;2.55;;
24206;SDS011;12351;52.284;9.160;2022-09-24T00:41:24;4.97;;;2.37;;
24206;SDS011;12351;52.284;9.160;2022-09-24T00:47:10;7.47;;;2.80;;
24206;SDS011;12351;52.284;9.160;2022-09-24T00:49:59;8.00;;;2.60;;
24206;SDS011;12351;52.284;9.160;2022-09-24T00:52:49;8.58;;;3.40;;
24206;SDS011;12351;52.284;9.160;2022-09-24T00:55:39;8.70;;;2.90;;
24206;SDS011;12351;52.284;9.160;2022-09-24T00:58:32;6.58;;;2.77;;
24206;SDS011;12351;52.284;9.160;2022-09-24T01:01:23;8.50;;;2.80;;
24206;SDS011;12351;52.284;9.160;2022-09-24T01:04:12;5.87;;;2.80;;
24206;SDS011;12351;52.284;9.160;2022-09-24T01:07:03;4.10;;;2.90;;
24206;SDS011;12351;52.284;9.160;2022-09-24T01:09:54;5.75;;;3.20;;
24206;SDS011;12351;52.284;9.160;2022-09-24T01:12:46;5.08;;;3.15;;
24206;SDS011;12351;52.284;9.160;2022-09-24T01:15:36;6.47;;;3.37;;
24206;SDS011;12351;52.284;9.160;2022-09-24T01:18:30;4.20;;;3.37;;
24206;SDS011;12351;52.284;9.160;2022-09-24T01:21:19;6.72;;;3.62;;
24206;SDS011;12351;52.284;9.160;2022-09-24T01:32:44;5.15;;;4.00;;
24206;SDS011;12351;52.284;9.160;2022-09-24T01:35:35;5.12;;;4.10;;
24206;SDS011;12351;52.284;9.160;2022-09-24T01:38:25;6.15;;;4.75;;
24206;SDS011;12351;52.284;9.160;2022-09-24T01:41:14;7.67;;;5.28;;
24206;SDS011;12351;52.284;9.160;2022-09-24T01:44:05;6.40;;;5.20;;
24206;SDS011;12351;52.284;9.160;2022-09-24T01:46:56;6.12;;;5.10;;
24206;SDS011;12351;52.284;9.160;2022-09-24T01:49:47;8.25;;;5.42;;
24206;SDS011;12351;52.284;9.160;2022-09-24T01:52:40;8.45;;;5.70;;
24206;SDS011;12351;52.284;9.160;2022-09-24T01:55:33;7.53;;;5.22;;
24206;SDS011;12351;52.284;9.160;2022-09-24T01:58:22;8.15;;;5.97;;
24206;SDS011;12351;52.284;9.160;2022-09-24T02:01:12;11.38;;;5.62;;
24206;SDS011;12351;52.284;9.160;2022-09-24T02:04:03;13.95;;;6.75;;
24206;SDS011;12351;52.284;9.160;2022-09-24T02:06:52;10.45;;;6.58;;
24206;SDS011;12351;52.284;9.160;2022-09-24T02:09:42;8.08;;;6.30;;
24206;SDS011;12351;52.284;9.160;2022-09-24T02:12:34;8.98;;;6.85;;
24206;SDS011;12351;52.284;9.160;2022-09-24T02:15:27;11.83;;;5.72;;
24206;SDS011;12351;52.284;9.160;2022-09-24T02:18:19;8.95;;;6.58;;
24206;SDS011;12351;52.284;9.160;2022-09-24T02:21:11;10.63;;;7.05;;
24206;SDS011;12351;52.284;9.160;2022-09-24T02:26:53;9.08;;;6.53;;
24206;SDS011;12351;52.284;9.160;2022-09-24T02:29:43;10.93;;;6.37;;
24206;SDS011;12351;52.284;9.160;2022-09-24T02:32:33;10.43;;;6.42;;
24206;SDS011;12351;52.284;9.160;2022-09-24T02:35:28;9.45;;;6.90;;
24206;SDS011;12351;52.284;9.160;2022-09-24T02:38:16;11.95;;;7.30;;
24206;SDS011;12351;52.284;9.160;2022-09-24T02:41:13;11.15;;;6.70;;
24206;SDS011;12351;52.284;9.160;2022-09-24T02:44:04;9.10;;;6.75;;
24206;SDS011;12351;52.284;9.160;2022-09-24T02:46:54;10.43;;;7.40;;
24206;SDS011;12351;52.284;9.160;2022-09-24T02:49:46;14.38;;;8.05;;
24206;SDS011;12351;52.284;9.160;2022-09-24T02:52:37;10.00;;;6.90;;
24206;SDS011;12351;52.284;9.160;2022-09-24T02:55:28;10.65;;;6.65;;
24206;SDS011;12351;52.284;9.160;2022-09-24T02:58:19;11.85;;;6.70;;
24206;SDS011;12351;52.284;9.160;2022-09-24T03:01:10;12.53;;;8.13;;
24206;SDS011;12351;52.284;9.160;2022-09-24T03:04:02;11.73;;;8.45;;
24206;SDS011;12351;52.284;9.160;2022-09-24T03:06:52;10.68;;;7.45;;
24206;SDS011;12351;52.284;9.160;2022-09-24T03:09:43;12.07;;;9.10;;
24206;SDS011;12351;52.284;9.160;2022-09-24T03:12:32;13.32;;;8.15;;
24206;SDS011;12351;52.284;9.160;2022-09-24T03:15:22;12.33;;;8.13;;
24206;SDS011;12351;52.284;9.160;2022-09-24T03:18:16;11.20;;;7.97;;
24206;SDS011;12351;52.284;9.160;2022-09-24T03:21:07;13.18;;;8.28;;
24206;SDS011;12351;52.284;9.160;2022-09-24T03:23:57;13.68;;;9.75;;
24206;SDS011;12351;52.284;9.160;2022-09-24T03:26:49;16.05;;;11.05;;
24206;SDS011;12351;52.284;9.160;2022-09-24T03:29:38;14.03;;;11.22;;
24206;SDS011;12351;52.284;9.160;2022-09-24T03:32:28;17.05;;;11.48;;
24206;SDS011;12351;52.284;9.160;2022-09-24T03:35:17;20.10;;;12.15;;
24206;SDS011;12351;52.284;9.160;2022-09-24T03:38:09;17.62;;;11.88;;
24206;SDS011;12351;52.284;9.160;2022-09-24T03:41:01;18.70;;;12.60;;
24206;SDS011;12351;52.284;9.160;2022-09-24T03:43:50;19.45;;;12.07;;
24206;SDS011;12351;52.284;9.160;2022-09-24T03:46:41;14.80;;;11.75;;
24206;SDS011;12351;52.284;9.160;2022-09-24T03:49:33;16.02;;;10.75;;
24206;SDS011;12351;52.284;9.160;2022-09-24T03:52:26;13.15;;;10.50;;
24206;SDS011;12351;52.284;9.160;2022-09-24T03:55:18;11.73;;;9.90;;
24206;SDS011;12351;52.284;9.160;2022-09-24T03:58:09;12.63;;;9.40;;
24206;SDS011;12351;52.284;9.160;2022-09-24T04:00:59;13.75;;;9.90;;
24206;SDS011;12351;52.284;9.160;2022-09-24T04:03:52;12.78;;;11.18;;
24206;SDS011;12351;52.284;9.160;2022-09-24T04:06:44;19.85;;;13.10;;
24206;SDS011;12351;52.284;9.160;2022-09-24T04:09:34;13.83;;;11.08;;
24206;SDS011;12351;52.284;9.160;2022-09-24T04:12:24;14.73;;;10.28;;
24206;SDS011;12351;52.284;9.160;2022-09-24T04:15:17;12.23;;;10.82;;
24206;SDS011;12351;52.284;9.160;2022-09-24T04:18:07;14.35;;;11.12;;
24206;SDS011;12351;52.284;9.160;2022-09-24T04:20:59;14.28;;;11.53;;
24206;SDS011;12351;52.284;9.160;2022-09-24T04:23:50;13.30;;;11.35;;
24206;SDS011;12351;52.284;9.160;2022-09-24T04:26:42;15.20;;;11.00;;
24206;SDS011;12351;52.284;9.160;2022-09-24T04:29:36;13.55;;;10.58;;
24206;SDS011;12351;52.284;9.160;2022-09-24T04:32:28;15.55;;;11.25;;
24206;SDS011;12351;52.284;9.160;2022-09-24T04:35:18;12.60;;;10.88;;
24206;SDS011;12351;52.284;9.160;2022-09-24T04:38:09;12.90;;;10.95;;
24206;SDS011;12351;52.284;9.160;2022-09-24T04:41:03;13.18;;;9.60;;
24206;SDS011;12351;52.284;9.160;2022-09-24T04:43:54;13.60;;;10.30;;
24206;SDS011;12351;52.284;9.160;2022-09-24T04:46:44;11.68;;;8.65;;
24206;SDS011;12351;52.284;9.160;2022-09-24T04:49:36;12.45;;;9.70;;
24206;SDS011;12351;52.284;9.160;2022-09-24T04:52:28;10.35;;;8.75;;
24206;SDS011;12351;52.284;9.160;2022-09-24T04:55:18;12.07;;;9.78;;
24206;SDS011;12351;52.284;9.160;2022-09-24T04:58:10;13.60;;;10.50;;
24206;SDS011;12351;52.284;9.160;2022-09-24T05:01:00;17.45;;;9.93;;
24206;SDS011;12351;52.284;9.160;2022-09-24T05:03:49;12.68;;;10.10;;
24206;SDS011;12351;52.284;9.160;2022-09-24T05:06:40;16.12;;;11.40;;
24206;SDS011;12351;52.284;9.160;2022-09-24T05:09:31;14.98;;;10.72;;
24206;SDS011;12351;52.284;9.160;2022-09-24T05:12:20;15.83;;;10.70;;
24206;SDS011;12351;52.284;9.160;2022-09-24T05:15:09;17.80;;;11.93;;
24206;SDS011;12351;52.284;9.160;2022-09-24T05:18:00;15.32;;;11.45;;
24206;SDS011;12351;52.284;9.160;2022-09-24T05:20:52;19.10;;;11.87;;
24206;SDS011;12351;52.284;9.160;2022-09-24T05:23:41;18.27;;;11.10;;
24206;SDS011;12351;52.284;9.160;2022-09-24T05:26:31;17.27;;;10.32;;
24206;SDS011;12351;52.284;9.160;2022-09-24T05:29:23;14.80;;;9.70;;
24206;SDS011;12351;52.284;9.160;2022-09-24T05:32:15;16.07;;;10.28;;
24206;SDS011;12351;52.284;9.160;2022-09-24T05:35:05;14.47;;;10.58;;
24206;SDS011;12351;52.284;9.160;2022-09-24T05:37:57;19.20;;;11.55;;
24206;SDS011;12351;52.284;9.160;2022-09-24T05:40:49;17.77;;;11.90;;
24206;SDS011;12351;52.284;9.160;2022-09-24T05:43:40;16.90;;;11.90;;
24206;SDS011;12351;52.284;9.160;2022-09-24T05:46:32;14.38;;;11.83;;
24206;SDS011;12351;52.284;9.160;2022-09-24T05:49:21;15.00;;;11.55;;
24206;SDS011;12351;52.284;9.160;2022-09-24T05:52:13;17.42;;;12.00;;
24206;SDS011;12351;52.284;9.160;2022-09-24T05:55:06;15.98;;;11.65;;
24206;SDS011;12351;52.284;9.160;2022-09-24T06:00:50;17.48;;;11.73;;
24206;SDS011;12351;52.284;9.160;2022-09-24T06:03:41;16.50;;;11.53;;
24206;SDS011;12351;52.284;9.160;2022-09-24T06:06:31;20.17;;;12.68;;
24206;SDS011;12351;52.284;9.160;2022-09-24T06:09:20;16.50;;;12.10;;
24206;SDS011;12351;52.284;9.160;2022-09-24T06:12:10;18.90;;;12.85;;
24206;SDS011;12351;52.284;9.160;2022-09-24T06:15:01;16.87;;;12.28;;
24206;SDS011;12351;52.284;9.160;2022-09-24T06:17:52;18.67;;;11.97;;
24206;SDS011;12351;52.284;9.160;2022-09-24T06:20:44;19.10;;;11.73;;
24206;SDS011;12351;52.284;9.160;2022-09-24T06:23:33;16.57;;;12.78;;
24206;SDS011;12351;52.284;9.160;2022-09-24T06:26:27;18.17;;;12.88;;
24206;SDS011;12351;52.284;9.160;2022-09-24T06:29:19;17.00;;;13.28;;
24206;SDS011;12351;52.284;9.160;2022-09-24T06:32:08;15.30;;;12.53;;
24206;SDS011;12351;52.284;9.160;2022-09-24T06:35:00;18.00;;;13.18;;
24206;SDS011;12351;52.284;9.160;2022-09-24T06:37:51;17.67;;;13.08;;
24206;SDS011;12351;52.284;9.160;2022-09-24T06:40:43;16.77;;;12.30;;
24206;SDS011;12351;52.284;9.160;2022-09-24T06:43:33;16.07;;;11.95;;
24206;SDS011;12351;52.284;9.160;2022-09-24T06:46:24;18.73;;;12.58;;
24206;SDS011;12351;52.284;9.160;2022-09-24T06:49:16;17.00;;;12.53;;
24206;SDS011;12351;52.284;9.160;2022-09-24T06:52:04;15.32;;;12.07;;
24206;SDS011;12351;52.284;9.160;2022-09-24T06:54:56;18.92;;;12.60;;
24206;SDS011;12351;52.284;9.160;2022-09-24T06:57:48;17.55;;;13.32;;
24206;SDS011;12351;52.284;9.160;2022-09-24T07:00:38;20.55;;;12.75;;
24206;SDS011;12351;52.284;9.160;2022-09-24T07:03:29;15.55;;;12.85;;
24206;SDS011;12351;52.284;9.160;2022-09-24T07:06:18;15.63;;;12.73;;
24206;SDS011;12351;52.284;9.160;2022-09-24T07:09:08;17.67;;;13.88;;
24206;SDS011;12351;52.284;9.160;2022-09-24T07:11:58;18.77;;;14.38;;
24206;SDS011;12351;52.284;9.160;2022-09-24T07:14:51;20.55;;;14.20;;
24206;SDS011;12351;52.284;9.160;2022-09-24T07:17:42;20.40;;;14.70;;
24206;SDS011;12351;52.284;9.160;2022-09-24T07:20:35;19.60;;;15.60;;
24206;SDS011;12351;52.284;9.160;2022-09-24T07:23:26;19.25;;;14.53;;
24206;SDS011;12351;52.284;9.160;2022-09-24T07:26:15;17.27;;;14.10;;
24206;SDS011;12351;52.284;9.160;2022-09-24T07:29:07;19.82;;;15.43;;
24206;SDS011;12351;52.284;9.160;2022-09-24T07:31:56;18.52;;;15.05;;
24206;SDS011;12351;52.284;9.160;2022-09-24T07:34:49;19.48;;;14.83;;
24206;SDS011;12351;52.284;9.160;2022-09-24T07:37:42;17.17;;;14.47;;
24206;SDS011;12351;52.284;9.160;2022-09-24T07:40:35;24.60;;;15.30;;
24206;SDS011;12351;52.284;9.160;2022-09-24T07:43:24;22.02;;;16.42;;
24206;SDS011;12351;52.284;9.160;2022-09-24T07:46:15;23.15;;;17.17;;
24206;SDS011;12351;52.284;9.160;2022-09-24T07:49:08;25.72;;;19.12;;
24206;SDS011;12351;52.284;9.160;2022-09-24T07:51:58;21.27;;;15.55;;
24206;SDS011;12351;52.284;9.160;2022-09-24T07:54:50;21.73;;;15.15;;
24206;SDS011;12351;52.284;9.160;2022-09-24T07:57:44;23.77;;;15.80;;
24206;SDS011;12351;52.284;9.160;2022-09-24T08:00:31;21.00;;;15.95;;
24206;SDS011;12351;52.284;9.160;2022-09-24T08:03:19;20.85;;;16.17;;
24206;SDS011;12351;52.284;9.160;2022-09-24T08:06:11;20.23;;;15.75;;
24206;SDS011;12351;52.284;9.160;2022-09-24T08:09:02;19.87;;;15.55;;
24206;SDS011;12351;52.284;9.160;2022-09-24T08:11:53;19.67;;;15.13;;
24206;SDS011;12351;52.284;9.160;2022-09-24T08:14:45;19.12;;;14.75;;
24206;SDS011;12351;52.284;9.160;2022-09-24T08:17:38;18.23;;;14.53;;
24206;SDS011;12351;52.284;9.160;2022-09-24T08:20:32;21.12;;;16.00;;
24206;SDS011;12351;52.284;9.160;2022-09-24T08:23:20;18.23;;;15.47;;
24206;SDS011;12351;52.284;9.160;2022-09-24T08:26:12;21.50;;;15.23;;
24206;SDS011;12351;52.284;9.160;2022-09-24T08:29:01;20.37;;;15.50;;
24206;SDS011;12351;52.284;9.160;2022-09-24T08:31:53;19.37;;;15.18;;
24206;SDS011;12351;52.284;9.160;2022-09-24T08:34:43;20.43;;;15.53;;
24206;SDS011;12351;52.284;9.160;2022-09-24T08:37:33;19.35;;;14.15;;
24206;SDS011;12351;52.284;9.160;2022-09-24T08:40:25;17.55;;;13.60;;
24206;SDS011;12351;52.284;9.160;2022-09-24T08:48:56;14.43;;;11.65;;
24206;SDS011;12351;52.284;9.160;2022-09-24T08:51:50;16.23;;;11.60;;
24206;SDS011;12351;52.284;9.160;2022-09-24T08:54:38;15.72;;;12.58;;
24206;SDS011;12351;52.284;9.160;2022-09-24T08:57:27;15.60;;;12.55;;
24206;SDS011;12351;52.284;9.160;2022-09-24T09:00:21;17.98;;;12.90;;
24206;SDS011;12351;52.284;9.160;2022-09-24T09:03:13;14.98;;;11.22;;
24206;SDS011;12351;52.284;9.160;2022-09-24T09:06:04;12.07;;;10.58;;
24206;SDS011;12351;52.284;9.160;2022-09-24T09:08:55;11.40;;;9.45;;
24206;SDS011;12351;52.284;9.160;2022-09-24T09:11:45;11.68;;;9.03;;
24206;SDS011;12351;52.284;9.160;2022-09-24T09:17:28;9.98;;;8.30;;
24206;SDS011;12351;52.284;9.160;2022-09-24T09:20:18;14.18;;;9.68;;
24206;SDS011;12351;52.284;9.160;2022-09-24T09:25:59;9.90;;;7.67;;
24206;SDS011;12351;52.284;9.160;2022-09-24T09:28:52;8.33;;;7.53;;
24206;SDS011;12351;52.284;9.160;2022-09-24T09:31:47;9.05;;;7.47;;
24206;SDS011;12351;52.284;9.160;2022-09-24T09:43:11;8.43;;;7.08;;
24206;SDS011;12351;52.284;9.160;2022-09-24T09:46:04;9.45;;;7.75;;
24206;SDS011;12351;52.284;9.160;2022-09-24T09:48:50;7.95;;;7.00;;
24206;SDS011;12351;52.284;9.160;2022-09-24T09:51:41;7.97;;;7.17;;
24206;SDS011;12351;52.284;9.160;2022-09-24T09:54:35;7.72;;;6.92;;
24206;SDS011;12351;52.284;9.160;2022-09-24T09:57:24;8.15;;;7.10;;
24206;SDS011;12351;52.284;9.160;2022-09-24T10:03:17;7.80;;;7.00;;
24206;SDS011;12351;52.284;9.160;2022-09-24T10:05:56;7.40;;;6.70;;
24206;SDS011;12351;52.284;9.160;2022-09-24T10:08:48;8.13;;;7.30;;
24206;SDS011;12351;52.284;9.160;2022-09-24T10:11:38;8.25;;;6.50;;
24206;SDS011;12351;52.284;9.160;2022-09-24T10:14:28;7.20;;;6.50;;
24206;SDS011;12351;52.284;9.160;2022-09-24T10:17:18;7.65;;;6.65;;
24206;SDS011;12351;52.284;9.160;2022-09-24T10:23:02;8.08;;;7.28;;
24206;SDS011;12351;52.284;9.160;2022-09-24T10:25:54;8.55;;;7.33;;
24206;SDS011;12351;52.284;9.160;2022-09-24T10:28:44;7.80;;;6.90;;
24206;SDS011;12351;52.284;9.160;2022-09-24T10:31:35;9.15;;;7.08;;
24206;SDS011;12351;52.284;9.160;2022-09-24T10:34:26;9.25;;;7.12;;
24206;SDS011;12351;52.284;9.160;2022-09-24T10:37:15;8.25;;;7.42;;
24206;SDS011;12351;52.284;9.160;2022-09-24T10:43:00;8.63;;;6.90;;
24206;SDS011;12351;52.284;9.160;2022-09-24T10:54:27;8.45;;;7.42;;
24206;SDS011;12351;52.284;9.160;2022-09-24T10:57:16;8.40;;;7.53;;
24206;SDS011;12351;52.284;9.160;2022-09-24T11:05:49;8.50;;;7.65;;
24206;SDS011;12351;52.284;9.160;2022-09-24T11:14:25;11.00;;;8.80;;
24206;SDS011;12351;52.284;9.160;2022-09-24T11:31:39;11.53;;;9.08;;
24206;SDS011;12351;52.284;9.160;2022-09-24T11:34:32;10.98;;;9.83;;
24206;SDS011;12351;52.284;9.160;2022-09-24T11:40:14;10.18;;;9.13;;
24206;SDS011;12351;52.284;9.160;2022-09-24T11:45:45;12.00;;;9.43;;
24206;SDS011;12351;52.284;9.160;2022-09-24T11:48:39;12.63;;;10.38;;
24206;SDS011;12351;52.284;9.160;2022-09-24T11:54:21;12.33;;;10.40;;
24206;SDS011;12351;52.284;9.160;2022-09-24T11:57:16;13.15;;;10.90;;
24206;SDS011;12351;52.284;9.160;2022-09-24T12:00:03;12.10;;;10.43;;
24206;SDS011;12351;52.284;9.160;2022-09-24T12:02:54;12.37;;;10.58;;
24206;SDS011;12351;52.284;9.160;2022-09-24T12:05:46;12.88;;;10.58;;
24206;SDS011;12351;52.284;9.160;2022-09-24T12:08:38;11.12;;;9.90;;
24206;SDS011;12351;52.284;9.160;2022-09-24T12:14:19;10.85;;;8.70;;
24206;SDS011;12351;52.284;9.160;2022-09-24T12:17:09;9.40;;;8.23;;
24206;SDS011;12351;52.284;9.160;2022-09-24T12:20:03;10.35;;;8.73;;
24206;SDS011;12351;52.284;9.160;2022-09-24T12:22:55;11.75;;;9.13;;
24206;SDS011;12351;52.284;9.160;2022-09-24T12:25:44;10.88;;;9.08;;
24206;SDS011;12351;52.284;9.160;2022-09-24T12:28:40;11.03;;;9.55;;
24206;SDS011;12351;52.284;9.160;2022-09-24T12:34:21;10.50;;;9.38;;
24206;SDS011;12351;52.284;9.160;2022-09-24T12:37:09;11.18;;;9.48;;
24206;SDS011;12351;52.284;9.160;2022-09-24T12:42:53;12.95;;;9.73;;
24206;SDS011;12351;52.284;9.160;2022-09-24T12:45:43;11.53;;;9.58;;
24206;SDS011;12351;52.284;9.160;2022-09-24T12:48:33;11.33;;;9.70;;
24206;SDS011;12351;52.284;9.160;2022-09-24T12:51:23;11.93;;;10.08;;
24206;SDS011;12351;52.284;9.160;2022-09-24T12:54:19;13.53;;;10.08;;
24206;SDS011;12351;52.284;9.160;2022-09-24T12:59:56;12.23;;;9.25;;
24206;SDS011;12351;52.284;9.160;2022-09-24T13:02:46;11.48;;;9.58;;
24206;SDS011;12351;52.284;9.160;2022-09-24T13:08:26;12.15;;;9.93;;
24206;SDS011;12351;52.284;9.160;2022-09-24T13:16:57;15.50;;;11.00;;
24206;SDS011;12351;52.284;9.160;2022-09-24T13:19:46;14.80;;;11.08;;
24206;SDS011;12351;52.284;9.160;2022-09-24T13:22:37;14.60;;;11.30;;
24206;SDS011;12351;52.284;9.160;2022-09-24T13:25:26;13.30;;;11.60;;
24206;SDS011;12351;52.284;9.160;2022-09-24T13:33:58;14.63;;;12.33;;
24206;SDS011;12351;52.284;9.160;2022-09-24T13:36:48;15.23;;;12.40;;
24206;SDS011;12351;52.284;9.160;2022-09-24T13:45:09;15.40;;;11.48;;
24206;SDS011;12351;52.284;9.160;2022-09-24T13:47:58;13.50;;;12.10;;
24206;SDS011;12351;52.284;9.160;2022-09-24T13:50:48;13.13;;;11.53;;
24206;SDS011;12351;52.284;9.160;2022-09-24T13:53:38;14.50;;;12.20;;
24206;SDS011;12351;52.284;9.160;2022-09-24T13:56:26;15.63;;;13.35;;
24206;SDS011;12351;52.284;9.160;2022-09-24T13:59:15;13.78;;;11.50;;
24206;SDS011;12351;52.284;9.160;2022-09-24T14:02:18;13.88;;;11.88;;
24206;SDS011;12351;52.284;9.160;2022-09-24T14:04:56;14.20;;;11.97;;
24206;SDS011;12351;52.284;9.160;2022-09-24T14:10:41;14.25;;;12.03;;
24206;SDS011;12351;52.284;9.160;2022-09-24T14:13:31;14.00;;;11.48;;
24206;SDS011;12351;52.284;9.160;2022-09-24T14:16:23;13.88;;;12.15;;
24206;SDS011;12351;52.284;9.160;2022-09-24T14:19:13;14.28;;;11.70;;
24206;SDS011;12351;52.284;9.160;2022-09-24T14:22:02;13.48;;;12.05;;
24206;SDS011;12351;52.284;9.160;2022-09-24T14:24:55;13.65;;;11.83;;
24206;SDS011;12351;52.284;9.160;2022-09-24T14:27:44;15.32;;;12.28;;
24206;SDS011;12351;52.284;9.160;2022-09-24T14:30:35;13.75;;;12.25;;
24206;SDS011;12351;52.284;9.160;2022-09-24T14:33:27;14.00;;;11.83;;
24206;SDS011;12351;52.284;9.160;2022-09-24T14:36:16;12.85;;;11.50;;
24206;SDS011;12351;52.284;9.160;2022-09-24T14:39:06;13.05;;;11.65;;
24206;SDS011;12351;52.284;9.160;2022-09-24T14:41:54;13.08;;;11.33;;
24206;SDS011;12351;52.284;9.160;2022-09-24T14:44:44;14.10;;;12.13;;
24206;SDS011;12351;52.284;9.160;2022-09-24T14:47:34;13.60;;;11.68;;
24206;SDS011;12351;52.284;9.160;2022-09-24T14:50:25;13.75;;;12.35;;
24206;SDS011;12351;52.284;9.160;2022-09-24T14:56:16;13.60;;;12.23;;
24206;SDS011;12351;52.284;9.160;2022-09-24T15:01:45;14.68;;;12.50;;
24206;SDS011;12351;52.284;9.160;2022-09-24T15:04:34;14.58;;;12.60;;
24206;SDS011;12351;52.284;9.160;2022-09-24T15:07:23;13.55;;;12.15;;
24206;SDS011;12351;52.284;9.160;2022-09-24T15:18:53;16.15;;;13.75;;
24206;SDS011;12351;52.284;9.160;2022-09-24T15:21:37;15.45;;;13.10;;
24206;SDS011;12351;52.284;9.160;2022-09-24T15:24:25;18.55;;;16.25;;
24206;SDS011;12351;52.284;9.160;2022-09-24T15:30:09;15.27;;;13.73;;
24206;SDS011;12351;52.284;9.160;2022-09-24T15:32:57;17.95;;;14.33;;
24206;SDS011;12351;52.284;9.160;2022-09-24T15:35:47;21.87;;;17.73;;
24206;SDS011;12351;52.284;9.160;2022-09-24T15:38:36;18.65;;;16.07;;
24206;SDS011;12351;52.284;9.160;2022-09-24T15:41:25;15.25;;;13.58;;
24206;SDS011;12351;52.284;9.160;2022-09-24T15:44:18;13.78;;;12.37;;
24206;SDS011;12351;52.284;9.160;2022-09-24T15:47:08;14.50;;;13.00;;
24206;SDS011;12351;52.284;9.160;2022-09-24T15:49:57;15.85;;;13.90;;
24206;SDS011;12351;52.284;9.160;2022-09-24T15:55:55;14.57;;;13.17;;
24206;SDS011;12351;52.284;9.160;2022-09-24T15:58:45;14.98;;;13.32;;
24206;SDS011;12351;52.284;9.160;2022-09-24T16:01:33;16.12;;;14.43;;
24206;SDS011;12351;52.284;9.160;2022-09-24T16:04:20;16.35;;;14.65;;
24206;SDS011;12351;52.284;9.160;2022-09-24T16:07:08;15.18;;;13.62;;
24206;SDS011;12351;52.284;9.160;2022-09-24T16:09:57;15.10;;;13.62;;
24206;SDS011;12351;52.284;9.160;2022-09-24T16:12:47;16.87;;;14.03;;
24206;SDS011;12351;52.284;9.160;2022-09-24T16:15:34;18.60;;;14.90;;
24206;SDS011;12351;52.284;9.160;2022-09-24T16:18:22;15.45;;;13.05;;
24206;SDS011;12351;52.284;9.160;2022-09-24T16:21:14;15.30;;;13.70;;
24206;SDS011;12351;52.284;9.160;2022-09-24T16:24:03;14.60;;;12.70;;
24206;SDS011;12351;52.284;9.160;2022-09-24T16:26:50;15.55;;;13.95;;
24206;SDS011;12351;52.284;9.160;2022-09-24T16:29:37;16.32;;;14.63;;
24206;SDS011;12351;52.284;9.160;2022-09-24T16:32:25;17.55;;;15.05;;
24206;SDS011;12351;52.284;9.160;2022-09-24T16:35:14;21.35;;;18.05;;
24206;SDS011;12351;52.284;9.160;2022-09-24T16:38:03;25.10;;;18.87;;
24206;SDS011;12351;52.284;9.160;2022-09-24T16:43:45;21.77;;;18.92;;
24206;SDS011;12351;52.284;9.160;2022-09-24T16:46:34;20.62;;;16.73;;
24206;SDS011;12351;52.284;9.160;2022-09-24T16:49:24;17.07;;;15.28;;
24206;SDS011;12351;52.284;9.160;2022-09-24T16:52:12;16.97;;;15.28;;
24206;SDS011;12351;52.284;9.160;2022-09-24T16:55:02;17.05;;;15.32;;
24206;SDS011;12351;52.284;9.160;2022-09-24T16:57:53;17.40;;;14.13;;
24206;SDS011;12351;52.284;9.160;2022-09-24T17:00:42;16.90;;;15.10;;
24206;SDS011;12351;52.284;9.160;2022-09-24T17:03:30;16.82;;;15.03;;
24206;SDS011;12351;52.284;9.160;2022-09-24T17:06:20;17.95;;;15.38;;
24206;SDS011;12351;52.284;9.160;2022-09-24T17:09:11;17.45;;;15.53;;
24206;SDS011;12351;52.284;9.160;2022-09-24T17:12:01;17.20;;;15.40;;
24206;SDS011;12351;52.284;9.160;2022-09-24T17:14:49;16.73;;;15.03;;
24206;SDS011;12351;52.284;9.160;2022-09-24T17:17:39;17.65;;;14.65;;
24206;SDS011;12351;52.284;9.160;2022-09-24T17:20:27;18.25;;;14.75;;
24206;SDS011;12351;52.284;9.160;2022-09-24T17:23:17;16.23;;;14.53;;
24206;SDS011;12351;52.284;9.160;2022-09-24T17:26:05;18.00;;;14.45;;
24206;SDS011;12351;52.284;9.160;2022-09-24T17:28:55;19.47;;;15.27;;
24206;SDS011;12351;52.284;9.160;2022-09-24T17:31:45;16.32;;;14.63;;
24206;SDS011;12351;52.284;9.160;2022-09-24T17:34:35;17.25;;;14.58;;
24206;SDS011;12351;52.284;9.160;2022-09-24T17:37:23;15.88;;;14.18;;
24206;SDS011;12351;52.284;9.160;2022-09-24T17:40:12;16.55;;;14.75;;
24206;SDS011;12351;52.284;9.160;2022-09-24T17:43:02;17.90;;;16.00;;
24206;SDS011;12351;52.284;9.160;2022-09-24T17:48:43;17.37;;;15.58;;
24206;SDS011;12351;52.284;9.160;2022-09-24T17:51:35;17.30;;;15.50;;
24206;SDS011;12351;52.284;9.160;2022-09-24T17:54:23;18.37;;;16.48;;
24206;SDS011;12351;52.284;9.160;2022-09-24T17:57:14;18.05;;;16.17;;
24206;SDS011;12351;52.284;9.160;2022-09-24T18:00:03;20.43;;;16.95;;
24206;SDS011;12351;52.284;9.160;2022-09-24T18:02:53;19.45;;;17.35;;
24206;SDS011;12351;52.284;9.160;2022-09-24T18:05:42;21.60;;;17.35;;
24206;SDS011;12351;52.284;9.160;2022-09-24T18:08:34;20.05;;;17.92;;
24206;SDS011;12351;52.284;9.160;2022-09-24T18:11:25;19.20;;;16.95;;
24206;SDS011;12351;52.284;9.160;2022-09-24T18:14:15;19.55;;;17.45;;
24206;SDS011;12351;52.284;9.160;2022-09-24T18:17:07;20.43;;;17.07;;
24206;SDS011;12351;52.284;9.160;2022-09-24T18:19:55;20.90;;;18.00;;
24206;SDS011;12351;52.284;9.160;2022-09-24T18:22:44;20.02;;;17.92;;
24206;SDS011;12351;52.284;9.160;2022-09-24T18:25:34;20.68;;;18.45;;
24206;SDS011;12351;52.284;9.160;2022-09-24T18:28:22;20.00;;;17.92;;
24206;SDS011;12351;52.284;9.160;2022-09-24T18:31:11;21.97;;;18.90;;
24206;SDS011;12351;52.284;9.160;2022-09-24T18:34:01;20.92;;;17.80;;
24206;SDS011;12351;52.284;9.160;2022-09-24T18:36:52;24.95;;;18.80;;
24206;SDS011;12351;52.284;9.160;2022-09-24T18:39:40;23.60;;;18.75;;
24206;SDS011;12351;52.284;9.160;2022-09-24T18:42:32;20.90;;;18.48;;
24206;SDS011;12351;52.284;9.160;2022-09-24T18:45:20;20.77;;;18.48;;
24206;SDS011;12351;52.284;9.160;2022-09-24T18:48:09;20.57;;;18.12;;
24206;SDS011;12351;52.284;9.160;2022-09-24T18:50:58;23.07;;;19.07;;
24206;SDS011;12351;52.284;9.160;2022-09-24T18:56:38;21.65;;;18.67;;
24206;SDS011;12351;52.284;9.160;2022-09-24T18:59:27;21.42;;;18.57;;
24206;SDS011;12351;52.284;9.160;2022-09-24T19:02:15;21.68;;;19.37;;
24206;SDS011;12351;52.284;9.160;2022-09-24T19:05:05;24.72;;;20.12;;
24206;SDS011;12351;52.284;9.160;2022-09-24T19:07:54;22.93;;;20.52;;
24206;SDS011;12351;52.284;9.160;2022-09-24T19:10:43;24.32;;;21.20;;
24206;SDS011;12351;52.284;9.160;2022-09-24T19:13:33;27.13;;;21.12;;
24206;SDS011;12351;52.284;9.160;2022-09-24T19:16:22;25.55;;;22.32;;